Accueil
METAR-TAF:

METAR-TAF

Aéroports :

Gombe Lawanti International Airport

Gombe, Nigeria

latitude: 10-18-19N, longitude: 10-54-31E, altitude: 505 m

Observation

Le bulletin a été fait il y a 38 minutes, à 17:00 UTC
Vent 11 kt de est/nord-est
Température 36°C
Humidité 21%
Pression 1008 hPa
Visibilité 10 km ou plus
pas de nuages en-dessous de 1500 mètres et pas de cumulonimbus.

METAR: DNGO 141700Z 07011KT CAVOK 36/10 Q1008

Heure: 18:38 (17:38 UTC)

Prévision

Le bulletin a été fait il y a 6 heures et 38 minutes, à 11:00 UTC
Prévision valable du 14 à 12 UTC au 15 à 18 UTC
Vent 6 kt de ouest/sud-ouest
Visibilité 10 km ou plus
pas de nuages en-dessous de 1500 mètres et pas de cumulonimbus.
Temporairement
du 14 à 20 UTC au 15 à 01 UTC
Vent 2 kt de direction variable

TAF: DNGO 141100Z 1412/1518 24006KT CAVOK TEMPO 1420/1501 VRB02KT

Observations et prévisions météorologiques de plus de 4000 aéroports (messages METAR et TAF).

Les stations disponibles sont représentées par des disques jaunes et rouges sur la carte.

Passer la souris dessus pour voir le nom de la station.

Cliquer dessus pour voir les observations et prévisions météorologiques.

Pour changer de carte: cliquez sur les boutons verts avec une croix noire pour zoomer, sur le bouton vert avec un tiret pour effectuer un zoom arrière, ou sur les flèches vertes pour les cartes adjacentes.


METAR-TAF: